createdAt,value
2022-12-12T00:03:07.322Z,23.13
2022-12-12T00:05:50.810Z,23.97
2022-12-12T00:08:26.252Z,24.67
2022-12-12T00:11:01.591Z,22.73
2022-12-12T00:13:39.071Z,22.03
2022-12-12T00:16:16.368Z,21.80
2022-12-12T00:19:27.515Z,22.50
2022-12-12T00:22:10.024Z,23.27
2022-12-12T00:24:45.036Z,22.57
2022-12-12T00:27:50.362Z,23.40
2022-12-12T00:30:47.064Z,22.77
2022-12-12T00:33:22.300Z,23.33
2022-12-12T00:35:58.429Z,22.70
2022-12-12T00:38:33.692Z,22.67
2022-12-12T00:41:09.021Z,23.20
2022-12-12T00:43:43.285Z,24.07
2022-12-12T00:46:22.784Z,23.87
2022-12-12T00:49:00.251Z,24.67
2022-12-12T00:51:35.098Z,26.40
2022-12-12T00:54:10.081Z,27.43
2022-12-12T00:56:45.979Z,25.43
2022-12-12T00:59:21.156Z,27.57
2022-12-12T01:01:57.526Z,26.20
2022-12-12T01:04:32.374Z,25.77
2022-12-12T01:07:07.445Z,26.67
2022-12-12T01:09:41.758Z,26.53
2022-12-12T01:12:16.059Z,25.67
2022-12-12T01:14:50.547Z,23.20
2022-12-12T01:17:27.596Z,24.33
2022-12-12T01:20:01.880Z,22.80
2022-12-12T01:22:36.647Z,21.37
2022-12-12T01:25:12.027Z,21.80
2022-12-12T01:27:47.579Z,22.60
2022-12-12T01:30:23.990Z,21.43
2022-12-12T01:33:40.375Z,20.17
2022-12-12T01:36:23.504Z,20.87
2022-12-12T01:39:00.907Z,21.13
2022-12-12T01:41:36.312Z,21.20
2022-12-12T01:44:32.723Z,20.25
2022-12-12T01:47:07.312Z,21.50
2022-12-12T01:49:44.577Z,19.77
2022-12-12T01:52:23.739Z,20.33
2022-12-12T01:55:01.564Z,19.63
2022-12-12T01:57:40.254Z,20.00
2022-12-12T02:00:16.269Z,20.13
2022-12-12T02:03:31.529Z,19.80
2022-12-12T02:06:16.822Z,20.17
2022-12-12T02:08:52.122Z,21.60
2022-12-12T02:11:26.087Z,21.23
2022-12-12T02:14:00.818Z,20.47
2022-12-12T02:16:54.017Z,21.70
2022-12-12T02:19:56.398Z,21.80
2022-12-12T02:22:49.412Z,22.63
2022-12-12T02:25:48.778Z,21.97
2022-12-12T02:28:53.375Z,21.37
2022-12-12T02:31:35.699Z,22.03
2022-12-12T02:34:16.555Z,20.63
2022-12-12T02:36:57.631Z,22.30
2022-12-12T02:39:37.856Z,22.07
2022-12-12T02:42:19.910Z,22.20
2022-12-12T02:45:01.207Z,22.13
2022-12-12T02:47:40.661Z,21.90
2022-12-12T02:50:18.349Z,21.90
2022-12-12T02:52:54.614Z,21.23
2022-12-12T02:55:32.455Z,20.60
2022-12-12T02:58:10.778Z,22.07
2022-12-12T03:00:53.095Z,19.73
2022-12-12T03:03:52.325Z,21.20
2022-12-12T03:06:58.694Z,21.37
2022-12-12T03:09:43.201Z,20.33
2022-12-12T03:12:22.233Z,21.63
2022-12-12T03:15:05.769Z,21.40
2022-12-12T03:17:45.776Z,21.13
2022-12-12T03:20:28.718Z,22.47
2022-12-12T03:23:06.479Z,20.97
2022-12-12T03:25:46.238Z,21.53
2022-12-12T03:28:25.501Z,19.47
2022-12-12T03:31:04.766Z,21.33
2022-12-12T03:33:44.440Z,20.73
2022-12-12T03:36:24.263Z,20.10
2022-12-12T03:39:02.980Z,20.67
2022-12-12T03:41:41.565Z,20.17
2022-12-12T03:44:21.150Z,19.27
2022-12-12T03:46:58.249Z,19.77
2022-12-12T03:49:38.745Z,19.77
2022-12-12T03:52:20.367Z,19.00
2022-12-12T03:55:00.267Z,18.50
2022-12-12T03:57:39.930Z,20.07
2022-12-12T04:00:18.655Z,20.30
2022-12-12T04:02:58.996Z,19.90
2022-12-12T04:06:02.802Z,20.07
2022-12-12T04:09:05.149Z,19.57
2022-12-12T04:12:01.784Z,20.47
2022-12-12T04:15:01.694Z,19.40
2022-12-12T04:17:44.549Z,19.43
2022-12-12T04:20:45.123Z,18.37
2022-12-12T04:23:41.961Z,19.50
2022-12-12T04:26:40.810Z,19.40
2022-12-12T04:29:40.606Z,17.93
2022-12-12T04:32:25.350Z,17.83
2022-12-12T04:35:06.655Z,18.13
2022-12-12T04:37:45.385Z,18.87
2022-12-12T04:40:28.486Z,18.10
2022-12-12T04:43:12.104Z,19.00
2022-12-12T04:45:51.808Z,18.20
2022-12-12T04:48:38.043Z,19.00
2022-12-12T04:51:17.173Z,18.67
2022-12-12T04:53:58.162Z,18.80
2022-12-12T04:56:39.170Z,19.33
2022-12-12T04:59:20.102Z,19.00
2022-12-12T05:02:05.080Z,18.67
2022-12-12T05:04:46.148Z,19.47
2022-12-12T05:07:26.583Z,19.97
2022-12-12T05:10:02.949Z,20.00
2022-12-12T05:12:45.338Z,21.53
2022-12-12T05:15:24.641Z,18.80
2022-12-12T05:18:04.693Z,18.80
2022-12-12T05:20:39.387Z,19.77
2022-12-12T05:23:13.898Z,17.93
2022-12-12T05:25:48.540Z,18.63
2022-12-12T05:28:23.311Z,18.63
2022-12-12T05:30:59.988Z,19.00
2022-12-12T05:33:34.864Z,18.03
2022-12-12T05:36:09.467Z,18.27
2022-12-12T05:38:44.676Z,17.63
2022-12-12T05:41:19.203Z,18.53
2022-12-12T05:43:54.070Z,18.53
2022-12-12T05:46:31.185Z,18.03
2022-12-12T05:49:05.788Z,18.50
2022-12-12T05:51:41.392Z,18.13
2022-12-12T05:54:15.416Z,17.70
2022-12-12T05:56:50.029Z,18.10
2022-12-12T05:59:24.356Z,18.00
2022-12-12T06:02:01.196Z,17.93
2022-12-12T06:04:35.834Z,17.43
2022-12-12T06:07:11.901Z,17.80
2022-12-12T06:09:46.719Z,18.03
2022-12-12T06:12:21.199Z,18.43
2022-12-12T06:14:56.056Z,18.17
2022-12-12T06:17:34.008Z,17.47
2022-12-12T06:20:08.485Z,19.13
2022-12-12T06:22:45.920Z,17.93
2022-12-12T06:25:32.127Z,17.90
2022-12-12T06:28:08.323Z,18.53
2022-12-12T06:30:42.625Z,18.17
2022-12-12T06:33:18.747Z,18.47
2022-12-12T06:36:03.857Z,18.30
2022-12-12T06:38:40.199Z,18.20
2022-12-12T06:41:16.639Z,18.13
2022-12-12T06:47:54.607Z,18.53
2022-12-12T06:50:51.590Z,18.10
2022-12-12T06:53:25.879Z,18.70
2022-12-12T06:56:00.481Z,18.50
2022-12-12T06:58:34.670Z,18.50
2022-12-12T07:01:09.482Z,19.07
2022-12-12T07:03:44.058Z,20.40
2022-12-12T07:06:20.721Z,19.40
2022-12-12T07:08:58.085Z,18.90
2022-12-12T07:11:34.205Z,19.67
2022-12-12T07:14:49.946Z,18.60
2022-12-12T07:17:30.623Z,18.70
2022-12-12T07:20:06.006Z,18.40
2022-12-12T07:23:38.976Z,18.90
2022-12-12T07:26:22.697Z,19.27
2022-12-12T07:28:57.860Z,19.63
2022-12-12T07:31:32.727Z,18.80
2022-12-12T07:34:07.071Z,19.03
2022-12-12T07:36:41.511Z,21.50
2022-12-12T07:39:20.912Z,18.93
2022-12-12T07:41:55.130Z,19.63
2022-12-12T07:44:31.768Z,20.23
2022-12-12T07:47:06.843Z,19.93
2022-12-12T07:49:40.929Z,19.87
2022-12-12T07:52:16.119Z,19.17
2022-12-12T07:54:54.223Z,19.87
2022-12-12T07:57:28.785Z,19.67
2022-12-12T08:00:03.580Z,20.93
2022-12-12T08:02:45.496Z,19.20
2022-12-12T08:05:20.328Z,19.20
2022-12-12T08:08:06.124Z,19.13
2022-12-12T08:10:44.065Z,21.70
2022-12-12T08:13:19.492Z,20.80
2022-12-12T08:15:53.799Z,18.47
2022-12-12T08:18:29.021Z,19.27
2022-12-12T08:21:04.250Z,20.27
2022-12-12T08:23:39.589Z,19.50
2022-12-12T08:26:18.648Z,19.70
2022-12-12T08:28:53.573Z,19.70
2022-12-12T08:31:28.618Z,18.93
2022-12-12T08:34:04.534Z,19.57
2022-12-12T08:36:40.193Z,20.53
2022-12-12T08:39:17.597Z,19.67
2022-12-12T08:41:56.030Z,20.37
2022-12-12T08:44:31.518Z,19.50
2022-12-12T08:47:06.998Z,20.07
2022-12-12T08:49:41.580Z,19.33
2022-12-12T08:52:16.080Z,18.83
2022-12-12T08:55:37.125Z,20.57
2022-12-12T08:58:26.052Z,19.60
2022-12-12T09:01:01.136Z,19.53
2022-12-12T09:03:36.708Z,19.53
2022-12-12T09:06:12.099Z,20.17
2022-12-12T09:08:47.670Z,20.73
2022-12-12T09:11:23.363Z,19.20
2022-12-12T09:14:00.341Z,20.73
2022-12-12T09:16:37.782Z,21.30
2022-12-12T09:19:12.405Z,20.43
2022-12-12T09:21:47.929Z,19.80
2022-12-12T09:24:22.348Z,19.67
2022-12-12T09:26:57.844Z,20.37
2022-12-12T09:30:27.636Z,22.00
2022-12-12T09:33:41.393Z,20.40
2022-12-12T09:37:01.621Z,20.40
2022-12-12T09:39:36.607Z,19.87
2022-12-12T09:42:24.727Z,21.03
2022-12-12T09:45:09.910Z,21.70
2022-12-12T09:47:49.064Z,21.33
2022-12-12T09:50:30.851Z,23.10
2022-12-12T09:53:07.952Z,23.07
2022-12-12T09:55:48.857Z,23.87
2022-12-12T09:58:31.121Z,25.83
2022-12-12T10:01:13.553Z,24.40
2022-12-12T10:04:00.424Z,25.00
2022-12-12T10:06:43.220Z,24.13
2022-12-12T10:09:40.154Z,25.80
2022-12-12T10:12:20.002Z,27.27
2022-12-12T10:15:03.829Z,28.73
2022-12-12T10:17:45.089Z,29.27
2022-12-12T10:20:26.239Z,27.80
2022-12-12T10:23:07.634Z,32.00
2022-12-12T10:25:50.528Z,33.03
2022-12-12T10:28:28.286Z,35.20
2022-12-12T10:31:21.554Z,35.93
2022-12-12T10:34:14.060Z,35.80
2022-12-12T10:37:02.926Z,37.07
2022-12-12T10:39:47.175Z,37.03
2022-12-12T10:42:29.501Z,38.83
2022-12-12T10:45:58.615Z,38.87
2022-12-12T10:49:22.991Z,39.03
2022-12-12T10:52:21.391Z,41.23
2022-12-12T10:55:00.550Z,39.97
2022-12-12T10:57:41.793Z,41.27
2022-12-12T11:00:31.425Z,42.53
2022-12-12T11:03:28.373Z,42.90
2022-12-12T11:06:59.877Z,43.00
2022-12-12T11:10:05.758Z,43.80
2022-12-12T11:12:48.579Z,44.33
2022-12-12T11:15:24.818Z,43.60
2022-12-12T11:18:06.308Z,44.90
2022-12-12T11:20:52.702Z,44.50
2022-12-12T11:23:34.176Z,43.47
2022-12-12T11:27:10.854Z,44.63
2022-12-12T11:31:00.811Z,43.70
2022-12-12T11:33:50.688Z,44.40
2022-12-12T11:36:36.295Z,43.43
2022-12-12T11:39:27.226Z,44.67
2022-12-12T11:42:09.939Z,44.93
2022-12-12T11:44:47.990Z,44.73
2022-12-12T11:48:05.119Z,44.27
2022-12-12T11:51:15.037Z,43.60
2022-12-12T11:53:53.432Z,45.00
2022-12-12T11:56:51.222Z,44.73
2022-12-12T12:00:02.038Z,44.73
2022-12-12T12:03:08.378Z,43.30
2022-12-12T12:05:58.515Z,40.47
2022-12-12T12:08:50.072Z,42.03
2022-12-12T12:11:35.085Z,42.53
2022-12-12T12:14:49.217Z,42.20
2022-12-12T12:17:35.895Z,41.20
2022-12-12T12:20:24.932Z,43.73
2022-12-12T12:23:10.469Z,40.67
2022-12-12T12:25:56.982Z,39.93
2022-12-12T12:28:50.878Z,41.33
2022-12-12T12:31:33.985Z,40.67
2022-12-12T12:34:22.922Z,40.33
2022-12-12T12:37:19.419Z,40.60
2022-12-12T12:40:14.829Z,40.07
2022-12-12T12:43:11.499Z,40.23
2022-12-12T12:45:54.942Z,40.27
2022-12-12T12:48:37.038Z,39.20
2022-12-12T12:51:22.033Z,39.47
2022-12-12T12:54:07.465Z,38.60
2022-12-12T12:56:51.321Z,39.20
2022-12-12T12:59:33.566Z,39.00
2022-12-12T13:02:21.210Z,40.40
2022-12-12T13:05:13.553Z,40.63
2022-12-12T13:07:57.574Z,39.47
2022-12-12T13:10:39.252Z,39.07
2022-12-12T13:13:25.004Z,38.40
2022-12-12T13:16:06.226Z,38.90
2022-12-12T13:18:46.171Z,39.30
2022-12-12T13:21:30.598Z,38.37
2022-12-12T13:24:14.196Z,39.33
2022-12-12T13:27:00.795Z,40.30
2022-12-12T13:29:45.610Z,38.20
2022-12-12T13:32:56.838Z,38.83
2022-12-12T13:35:37.615Z,38.53
2022-12-12T13:38:25.667Z,38.10
2022-12-12T13:41:11.076Z,37.77
2022-12-12T13:43:53.004Z,37.87
2022-12-12T13:46:46.770Z,37.30
2022-12-12T13:49:37.123Z,39.37
2022-12-12T13:52:31.343Z,38.67
2022-12-12T13:55:29.530Z,37.70
2022-12-12T13:58:22.938Z,38.63
2022-12-12T14:01:43.007Z,38.90
2022-12-12T14:04:35.125Z,38.10
2022-12-12T14:07:21.015Z,38.47
2022-12-12T14:10:03.996Z,38.10
2022-12-12T14:12:53.800Z,37.23
2022-12-12T14:15:41.226Z,39.90
2022-12-12T14:18:30.089Z,39.33
2022-12-12T14:21:10.198Z,37.90
2022-12-12T14:23:50.908Z,38.97
2022-12-12T14:26:55.381Z,38.13
2022-12-12T14:29:35.690Z,39.17
2022-12-12T14:32:46.804Z,40.17
2022-12-12T14:35:37.398Z,37.60
2022-12-12T14:38:27.782Z,43.90
2022-12-12T14:41:09.611Z,44.90
2022-12-12T14:44:37.981Z,40.60
2022-12-12T14:46:54.645Z,40.37
2022-12-12T14:49:31.637Z,40.17
2022-12-12T14:52:12.611Z,41.03
2022-12-12T14:54:51.646Z,42.00
2022-12-12T14:57:29.770Z,40.57
2022-12-12T15:00:10.228Z,39.00
2022-12-12T15:02:54.433Z,40.40
2022-12-12T15:05:31.641Z,38.47
2022-12-12T15:08:10.900Z,39.63
2022-12-12T15:10:48.682Z,41.40
2022-12-12T15:13:25.824Z,39.27
2022-12-12T15:16:02.562Z,39.67
2022-12-12T15:18:39.230Z,39.50
2022-12-12T15:21:15.308Z,38.70
2022-12-12T15:23:54.545Z,40.67
2022-12-12T15:26:33.030Z,38.83
2022-12-12T15:29:10.084Z,39.17
2022-12-12T15:31:51.031Z,39.90
2022-12-12T15:34:44.938Z,39.53
2022-12-12T15:37:33.393Z,39.67
2022-12-12T15:40:31.799Z,39.80
2022-12-12T15:43:14.556Z,39.33
2022-12-12T15:45:55.315Z,39.40
2022-12-12T15:48:32.787Z,40.60
2022-12-12T15:51:12.145Z,39.43
2022-12-12T15:53:53.885Z,39.93
2022-12-12T15:56:34.849Z,39.43
2022-12-12T15:59:27.270Z,40.33
2022-12-12T16:02:18.629Z,39.20
2022-12-12T16:05:03.394Z,40.77
2022-12-12T16:07:43.813Z,39.77
2022-12-12T16:10:30.033Z,39.10
2022-12-12T16:13:23.791Z,39.90
2022-12-12T16:15:59.706Z,40.93
2022-12-12T16:18:39.753Z,39.37
2022-12-12T16:21:16.079Z,38.83
2022-12-12T16:23:53.244Z,39.70
2022-12-12T16:26:29.259Z,39.23
2022-12-12T16:29:07.973Z,38.57
2022-12-12T16:31:45.235Z,39.17
2022-12-12T16:34:20.246Z,39.70
2022-12-12T16:36:55.700Z,40.83
2022-12-12T16:39:30.309Z,40.37
2022-12-12T16:42:05.108Z,39.97
2022-12-12T16:44:41.990Z,39.77
2022-12-12T16:47:56.620Z,40.87
2022-12-12T16:50:38.030Z,40.80
2022-12-12T16:53:41.113Z,40.23
2022-12-12T16:56:17.843Z,39.63
2022-12-12T16:58:55.061Z,39.93
2022-12-12T17:01:34.606Z,38.73
2022-12-12T17:04:19.759Z,38.97
2022-12-12T17:06:54.700Z,39.63
2022-12-12T17:09:30.285Z,39.97
2022-12-12T17:12:04.448Z,39.30
2022-12-12T17:14:39.688Z,39.57
2022-12-12T17:17:17.536Z,39.70
2022-12-12T17:19:51.715Z,38.40
2022-12-12T17:22:26.163Z,39.77
2022-12-12T17:25:00.561Z,39.50
2022-12-12T17:27:34.624Z,40.17
2022-12-12T17:30:09.629Z,40.63
2022-12-12T17:35:33.027Z,40.20
2022-12-12T17:38:09.221Z,39.60
2022-12-12T17:40:48.501Z,39.10
2022-12-12T17:43:22.775Z,39.53
2022-12-12T17:46:04.278Z,38.67
2022-12-12T17:48:41.209Z,40.33
2022-12-12T17:51:17.903Z,40.53
2022-12-12T17:53:54.203Z,40.33
2022-12-12T17:56:29.555Z,41.93
2022-12-12T17:59:08.117Z,39.97
2022-12-12T18:01:42.393Z,40.27
2022-12-12T18:04:23.154Z,39.50
2022-12-12T18:07:00.127Z,39.57
2022-12-12T18:09:35.050Z,39.20
2022-12-12T18:12:11.366Z,39.27
2022-12-12T18:14:46.623Z,40.43
2022-12-12T18:17:22.340Z,40.83
2022-12-12T18:20:00.631Z,40.40
2022-12-12T18:22:35.832Z,40.57
2022-12-12T18:25:10.924Z,40.70
2022-12-12T18:27:46.580Z,41.37
2022-12-12T18:30:21.589Z,40.03
2022-12-12T18:33:02.780Z,40.13
2022-12-12T18:35:40.851Z,41.50
2022-12-12T18:38:15.241Z,41.83
2022-12-12T18:40:49.456Z,43.07
2022-12-12T18:43:25.918Z,41.93
2022-12-12T18:46:01.542Z,42.23
2022-12-12T18:48:39.594Z,42.67
2022-12-12T18:51:17.739Z,42.77
2022-12-12T18:53:53.472Z,43.33
2022-12-12T18:56:29.353Z,41.77
2022-12-12T18:59:05.405Z,43.37
2022-12-12T19:01:41.452Z,45.43
2022-12-12T19:04:22.458Z,44.63
2022-12-12T19:07:00.876Z,45.87
2022-12-12T19:09:36.403Z,45.63
2022-12-12T19:12:12.580Z,44.53
2022-12-12T19:17:42.031Z,43.67
2022-12-12T19:20:17.622Z,45.47
2022-12-12T19:22:53.866Z,44.83
2022-12-12T19:25:28.018Z,48.20
2022-12-12T19:28:03.945Z,45.47
2022-12-12T19:30:40.119Z,47.43
2022-12-12T19:33:14.476Z,46.37
2022-12-12T19:35:48.824Z,45.33
2022-12-12T19:38:26.139Z,45.10
2022-12-12T19:41:00.481Z,46.23
2022-12-12T19:43:35.271Z,45.10
2022-12-12T19:46:13.780Z,46.10
2022-12-12T19:48:48.934Z,46.37
2022-12-12T19:51:25.196Z,46.33
2022-12-12T19:54:03.561Z,48.77
2022-12-12T19:56:39.422Z,47.77
2022-12-12T19:59:16.037Z,48.23
2022-12-12T20:01:51.118Z,49.73
2022-12-12T20:04:27.339Z,46.00
2022-12-12T20:07:01.713Z,49.00
2022-12-12T20:09:40.929Z,48.83
2022-12-12T20:12:15.122Z,49.33
2022-12-12T20:14:50.061Z,46.13
2022-12-12T20:17:25.724Z,45.83
2022-12-12T20:20:00.739Z,45.27
2022-12-12T20:22:34.928Z,43.30
2022-12-12T20:25:11.575Z,46.10
2022-12-12T20:27:46.303Z,46.63
2022-12-12T20:30:20.389Z,46.43
2022-12-12T20:32:55.256Z,46.67
2022-12-12T20:35:29.591Z,46.40
2022-12-12T20:38:03.966Z,43.90
2022-12-12T20:40:43.699Z,45.20
2022-12-12T20:43:18.407Z,44.33
2022-12-12T20:45:52.892Z,45.33
2022-12-12T20:48:27.960Z,45.53
2022-12-12T20:51:04.281Z,46.70
2022-12-12T20:53:40.793Z,47.80
2022-12-12T20:56:20.982Z,47.40
2022-12-12T20:59:01.629Z,49.67
2022-12-12T21:01:37.537Z,48.33
2022-12-12T21:04:13.201Z,46.60
2022-12-12T21:06:51.768Z,48.57
2022-12-12T21:09:28.523Z,49.67
2022-12-12T21:12:06.167Z,46.70
2022-12-12T21:14:40.232Z,49.33
2022-12-12T21:17:14.393Z,50.13
2022-12-12T21:19:48.989Z,48.50
2022-12-12T21:22:23.136Z,47.60
2022-12-12T21:24:57.357Z,49.90
2022-12-12T21:27:35.316Z,46.37
2022-12-12T21:30:10.809Z,48.70
2022-12-12T21:32:45.565Z,47.47
2022-12-12T21:35:19.664Z,47.13
2022-12-12T21:37:53.660Z,49.10
2022-12-12T21:40:28.385Z,47.53
2022-12-12T21:43:04.444Z,48.60
2022-12-12T21:45:41.227Z,47.60
2022-12-12T21:48:16.123Z,46.77
2022-12-12T21:50:50.249Z,46.97
2022-12-12T21:53:40.467Z,47.80
2022-12-12T21:56:16.873Z,41.17
2022-12-12T21:58:54.318Z,43.07
2022-12-12T22:01:28.684Z,43.03
2022-12-12T22:04:04.348Z,41.67
2022-12-12T22:06:41.060Z,43.07
2022-12-12T22:09:17.481Z,42.37
2022-12-12T22:12:03.051Z,41.40
2022-12-12T22:14:40.957Z,41.43
2022-12-12T22:17:15.825Z,38.73
2022-12-12T22:19:50.895Z,40.90
2022-12-12T22:22:25.022Z,42.03
2022-12-12T22:25:00.378Z,41.83
2022-12-12T22:27:34.379Z,41.77
2022-12-12T22:30:11.554Z,40.87
2022-12-12T22:32:46.648Z,41.13
2022-12-12T22:35:20.975Z,40.07
2022-12-12T22:37:55.293Z,39.77
2022-12-12T22:40:29.285Z,41.00
2022-12-12T22:43:04.802Z,37.83
2022-12-12T22:45:42.713Z,36.93
2022-12-12T22:48:17.210Z,38.50
2022-12-12T22:50:52.182Z,37.40
2022-12-12T22:53:26.325Z,37.33
2022-12-12T22:56:05.523Z,39.10
2022-12-12T22:58:40.291Z,39.37
2022-12-12T23:01:18.808Z,40.13
2022-12-12T23:03:53.524Z,38.23
2022-12-12T23:06:29.380Z,39.93
2022-12-12T23:09:05.836Z,38.50
2022-12-12T23:11:41.708Z,38.47
2022-12-12T23:14:18.962Z,39.10
2022-12-12T23:16:56.187Z,39.17
2022-12-12T23:19:32.078Z,39.60
2022-12-12T23:22:06.069Z,38.87
2022-12-12T23:24:40.121Z,37.70
2022-12-12T23:27:15.047Z,40.30
2022-12-12T23:29:50.109Z,42.70
2022-12-12T23:32:26.415Z,39.53
2022-12-12T23:35:02.057Z,39.37
2022-12-12T23:37:36.443Z,40.23
2022-12-12T23:40:11.591Z,42.30
2022-12-12T23:42:46.598Z,40.40
2022-12-12T23:45:21.485Z,39.43
2022-12-12T23:47:58.405Z,39.90
2022-12-12T23:50:32.384Z,40.50
2022-12-12T23:53:10.585Z,39.27
2022-12-12T23:55:45.602Z,40.93
2022-12-12T23:58:20.361Z,40.80
